Time;durP1;ratioP1;P1;durP2;ratioP2;P2;SDS_P1;SDS_P2;PMS_P1;PMS_P2;Temp;Humidity;BMP_temperature;BMP_pressure;BME280_temperature;BME280_humidity;BME280_pressure;Samples;Min_cycle;Max_cycle;Signal;HPM_P1;HPM_P2
2023/11/15 05:35:53;;;;;;;14.50;5.60;;;;;;;8.58;69.53;97741.66;107216;1257;109044;-81
2023/11/15 05:38:41;;;;;;;12.30;4.80;;;;;;;8.59;69.75;97748.79;108028;1241;97912;-86
2023/11/15 05:41:08;;;;;;;14.50;5.10;;;;;;;8.60;69.73;97746.42;107718;1243;96695;-81
2023/11/15 05:43:44;;;;;;;16.10;5.50;;;;;;;8.59;69.78;97744.69;107918;1243;96589;-80
2023/11/15 05:46:11;;;;;;;10.30;4.60;;;;;;;8.60;69.76;97746.23;107866;1241;97556;-77
2023/11/15 05:48:40;;;;;;;12.40;4.50;;;;;;;8.58;69.84;97746.22;107904;1249;106980;-83
2023/11/15 05:51:10;;;;;;;14.50;5.30;;;;;;;8.57;69.85;97751.77;108020;1233;96593;-80
2023/11/15 05:53:37;;;;;;;11.30;4.30;;;;;;;8.54;69.94;97751.64;107890;1238;97580;-79
2023/11/15 05:56:50;;;;;;;10.60;4.30;;;;;;;8.53;70.10;97752.54;107685;1235;97076;-82
2023/11/15 06:00:33;;;;;;;;;;;;;;;;;;;;;
2023/11/15 06:03:48;;;;;;;;;;;;;;;;;;;;;
2023/11/15 06:07:31;;;;;;;;;;;;;;;;;;;;;
2023/11/15 06:10:50;;;;;;;;;;;;;;;;;;;;;
2023/11/15 06:14:10;;;;;;;12.40;4.60;;;;;;;8.48;70.14;97769.29;105221;1272;107744;-79
2023/11/15 06:17:28;;;;;;;10.50;4.30;;;;;;;8.47;70.54;97776.58;104794;1268;415825;-81
2023/11/15 06:20:41;;;;;;;;;;;;;;;;;;;;;
2023/11/15 06:24:46;;;;;;;;;;;;;;;;;;;;;
2023/11/15 06:28:24;;;;;;;;;;;;;;;;;;;;;
2023/11/15 06:31:46;;;;;;;;;;;;;;;;;;;;;
2023/11/15 06:35:20;;;;;;;;;;;;;;;;;;;;;
2023/11/15 06:39:25;;;;;;;;;;;;;;;;;;;;;
2023/11/15 06:42:24;;;;;;;;;;;;;;;;;;;;;
2023/11/15 06:46:07;;;;;;;;;;;;;;;8.58;70.74;97791.68;103912;1275;95287;-80
2023/11/15 06:49:22;;;;;;;;;;;;;;;;;;;;;
2023/11/15 06:52:00;;;;;;;8.90;3.90;;;;;;;8.59;70.99;97798.48;104875;1276;96200;-79
2023/11/15 06:54:49;;;;;;;;;;;;;;;;;;;;;
2023/11/15 06:59:50;;;;;;;;;;;;;;;;;;;;;
2023/11/15 07:07:38;;;;;;;;;;;;;;;;;;;;;
2023/11/15 07:11:38;;;;;;;;;;;;;;;;;;;;;
2023/11/15 07:16:21;;;;;;;;;;;;;;;;;;;;;
2023/11/15 07:19:04;;;;;;;;;;;;;;;;;;;;;
2023/11/15 07:21:45;;;;;;;;;;;;;;;;;;;;;
2023/11/15 07:25:18;;;;;;;;;;;;;;;;;;;;;
2023/11/15 07:33:43;;;;;;;5.60;2.80;;;;;;;8.90;71.59;97821.27;106768;1276;107265;-80
2023/11/15 07:36:38;;;;;;;;;;;;;;;;;;;;;
2023/11/15 07:40:26;;;;;;;;;;;;;;;;;;;;;
2023/11/15 07:43:49;;;;;;;7.10;3.10;;;;;;;9.06;71.60;97828.06;106346;1285;107822;-80
2023/11/15 07:46:31;;;;;;;;;;;;;;;;;;;;;
2023/11/15 07:49:44;;;;;;;;;;;;;;;;;;;;;
2023/11/15 07:53:31;;;;;;;3.50;2.10;;;;;;;9.24;71.81;97830.39;107495;1264;93585;-81
2023/11/15 07:56:56;;;;;;;3.70;1.70;;;;;;;9.33;71.84;97826.96;107759;1258;93452;-80
2023/11/15 07:59:26;;;;;;;4.50;1.90;;;;;;;9.41;71.90;97834.02;108055;1258;108552;-82
2023/11/15 08:02:04;;;;;;;7.00;2.30;;;;;;;9.50;71.91;97836.08;108081;1259;94771;-84
2023/11/15 08:04:54;;;;;;;8.80;3.40;;;;;;;9.60;71.96;97838.41;108235;1254;107610;-79
2023/11/15 08:07:56;;;;;;;8.20;3.70;;;;;;;9.70;71.99;97839.98;108568;1254;92882;-80
2023/11/15 08:10:42;;;;;;;;;;;;;;;;;;;;;
2023/11/15 08:14:17;;;;;;;;;;;;;;;;;;;;;
2023/11/15 08:21:15;;;;;;;;;;;;;;;;;;;;;
2023/11/15 08:24:48;;;;;;;;;;;;;;;;;;;;;
2023/11/15 08:28:14;;;;;;;;;;;;;;;;;;;;;
2023/11/15 08:30:56;;;;;;;11.80;4.40;;;;;;;10.01;72.15;97848.77;108195;1260;107184;-78
2023/11/15 08:33:40;;;;;;;;;;;;;;;;;;;;;
2023/11/15 08:36:31;;;;;;;12.60;4.90;;;;;;;10.01;72.18;97851.66;108389;1254;108658;-80
2023/11/15 08:39:46;;;;;;;;;;;;;;;;;;;;;
2023/11/15 08:42:46;;;;;;;;;;;;;;;;;;;;;
2023/11/15 08:46:01;;;;;;;8.30;4.10;;;;;;;10.14;72.33;97864.48;108229;1255;108485;-80
2023/11/15 08:49:00;;;;;;;10.40;3.80;;;;;;;10.19;72.26;97860.42;108079;1259;95474;-80
2023/11/15 08:52:14;;;;;;;;;;;;;;;;;;;;;
2023/11/15 08:55:20;;;;;;;7.80;3.40;;;;;;;10.29;72.38;97864.33;107851;1263;93338;-79
2023/11/15 08:58:48;;;;;;;;;;;;;;;;;;;;;
2023/11/15 09:02:26;;;;;;;;;;;;;;;;;;;;;
2023/11/15 09:05:29;;;;;;;;;;;;;;;;;;;;;
2023/11/15 09:12:55;;;;;;;6.10;2.90;;;;;;;10.34;72.48;97881.26;108176;1254;93217;-79
2023/11/15 09:15:24;;;;;;;4.90;2.70;;;;;;;10.29;72.44;97883.83;108380;1254;93348;-81
2023/11/15 09:17:54;;;;;;;6.40;2.70;;;;;;;10.21;72.49;97882.61;108347;1254;109195;-82
2023/11/15 09:20:29;;;;;;;5.80;2.30;;;;;;;10.18;72.42;97880.05;108353;1254;95210;-82
2023/11/15 09:22:59;;;;;;;5.00;2.30;;;;;;;10.13;72.40;97881.16;108370;1254;107619;-83
2023/11/15 09:25:48;;;;;;;;;;;;;;;;;;;;;
2023/11/15 09:28:46;;;;;;;5.10;2.50;;;;;;;9.94;72.53;97885.54;108466;1254;92948;-81
2023/11/15 09:31:17;;;;;;;6.70;3.00;;;;;;;9.92;72.64;97884.84;108437;1253;108692;-78
2023/11/15 09:34:08;;;;;;;7.80;3.80;;;;;;;9.88;72.63;97887.48;108513;1254;95086;-80
2023/11/15 09:37:09;;;;;;;10.80;3.70;;;;;;;9.83;72.67;97887.55;108598;1254;107631;-80
2023/11/15 09:40:21;;;;;;;;;;;;;;;;;;;;;
2023/11/15 09:43:19;;;;;;;;;;;;;;;;;;;;;
2023/11/15 09:46:16;;;;;;;9.30;3.90;;;;;;;9.83;72.85;97888.25;108442;1254;108499;-77
2023/11/15 09:49:12;;;;;;;9.70;3.90;;;;;;;9.89;72.86;97887.73;108487;1253;96544;-82
2023/11/15 09:52:37;;;;;;;10.30;3.90;;;;;;;9.97;72.83;97888.82;108012;1258;107497;-81
2023/11/15 09:55:50;;;;;;;;;;;;;;;;;;;;;
2023/11/15 09:58:26;;;;;;;15.00;5.10;;;;;;;10.09;73.00;97885.63;108059;1258;92973;-79
2023/11/15 10:01:16;;;;;;;;;;;;;;;;;;;;;
2023/11/15 10:04:42;;;;;;;13.40;5.00;;;;;;;10.21;72.85;97890.20;108378;1253;96633;-78
2023/11/15 10:07:37;;;;;;;;;;;;;;;;;;;;;
2023/11/15 10:10:34;;;;;;;;;;;;;;;;;;;;;
2023/11/15 10:13:46;;;;;;;;;;;;;;;;;;;;;
2023/11/15 10:16:30;;;;;;;19.40;5.50;;;;;;;10.39;72.97;97892.02;108321;1254;109503;-82
2023/11/15 10:19:00;;;;;;;14.60;5.60;;;;;;;10.36;72.90;97895.46;108310;1254;95743;-78
2023/11/15 10:22:02;;;;;;;11.40;4.70;;;;;;;10.39;72.95;97892.86;108291;1254;107567;-78
2023/11/15 10:24:38;;;;;;;11.80;4.80;;;;;;;10.35;72.90;97896.20;108350;1254;93138;-79
2023/11/15 10:27:14;;;;;;;12.90;4.60;;;;;;;10.39;73.10;97899.23;108454;1254;93310;-78
2023/11/15 10:30:12;;;;;;;11.90;5.00;;;;;;;10.43;73.05;97896.98;108426;1253;108508;-77
2023/11/15 10:32:46;;;;;;;11.00;4.70;;;;;;;10.46;73.03;97900.79;108417;1254;95645;-79
2023/11/15 10:35:27;;;;;;;11.70;4.30;;;;;;;10.48;73.07;97900.21;108402;1254;107512;-77
2023/11/15 10:38:00;;;;;;;9.60;4.50;;;;;;;10.50;73.12;97898.80;108349;1254;93226;-78
2023/11/15 10:40:37;;;;;;;13.70;4.50;;;;;;;10.54;73.25;97898.41;108405;1254;93289;-78
2023/11/15 10:43:19;;;;;;;10.30;4.60;;;;;;;10.59;73.13;97903.05;108388;1253;108445;-77
2023/11/15 10:46:09;;;;;;;;;;;;;;;;;;;;;
2023/11/15 10:49:34;;;;;;;7.90;3.60;;;;;;;10.54;73.05;97904.46;108061;1254;107335;-77
2023/11/15 10:52:06;;;;;;;9.70;4.60;;;;;;;10.52;73.10;97907.52;108318;1254;93227;-77
2023/11/15 10:54:38;;;;;;;5.90;3.70;;;;;;;10.55;73.13;97903.65;108364;1254;93004;-78
2023/11/15 10:57:10;;;;;;;10.00;4.60;;;;;;;10.56;73.03;97905.02;108365;1253;108330;-77
2023/11/15 10:59:50;;;;;;;11.20;4.40;;;;;;;10.61;73.12;97901.77;108414;1254;95719;-77
2023/11/15 11:04:10;;;;;;;;;;;;;;;;;;;;;
2023/11/15 11:07:26;;;;;;;;;;;;;;;;;;;;;
2023/11/15 11:11:21;;;;;;;7.70;4.10;;;;;;;10.69;73.02;97907.73;104875;1261;94316;-77
2023/11/15 11:14:56;;;;;;;11.90;5.20;;;;;;;10.65;73.23;97908.27;104874;1262;106296;-77
2023/11/15 11:18:23;;;;;;;13.20;4.80;;;;;;;10.61;73.29;97912.73;101360;1258;5523571;-81
2023/11/15 11:21:02;;;;;;;10.60;4.40;;;;;;;10.60;73.28;97918.48;108239;1258;107426;-77
2023/11/15 11:23:37;;;;;;;12.10;5.60;;;;;;;10.54;73.25;97919.73;108397;1253;92797;-77
2023/11/15 11:26:33;;;;;;;11.40;4.30;;;;;;;10.49;73.31;97919.13;108516;1253;92062;-77
2023/11/15 11:29:11;;;;;;;10.80;4.70;;;;;;;10.45;73.41;97923.06;108549;1253;107227;-83
2023/11/15 11:31:43;;;;;;;12.00;5.10;;;;;;;10.41;73.39;97923.23;108466;1253;94035;-77
2023/11/15 11:34:18;;;;;;;9.70;4.80;;;;;;;10.35;73.37;97925.48;108402;1253;108853;-79
2023/11/15 11:36:57;;;;;;;11.60;4.90;;;;;;;10.27;73.58;97925.26;108434;1253;93158;-77
2023/11/15 11:40:07;;;;;;;16.40;5.90;;;;;;;10.22;73.42;97924.71;108711;1253;92869;-78
2023/11/15 11:42:57;;;;;;;;;;;;;;;;;;;;;
2023/11/15 11:45:53;;;;;;;14.10;4.90;;;;;;;10.14;73.54;97925.02;108760;1253;94149;-77
2023/11/15 11:48:32;;;;;;;11.10;4.50;;;;;;;10.10;73.58;97930.35;108532;1253;107762;-77
2023/11/15 11:51:16;;;;;;;;;;;;;;;;;;;;;
2023/11/15 11:53:54;;;;;;;21.90;7.30;;;;;;;9.96;73.63;97939.71;108781;1251;92936;-77
2023/11/15 11:56:25;;;;;;;13.00;5.30;;;;;;;9.92;73.54;97939.77;108804;1252;108586;-78
2023/11/15 11:59:07;;;;;;;15.00;4.90;;;;;;;9.89;73.68;97942.29;108772;1252;95467;-78
2023/11/15 12:01:46;;;;;;;13.70;5.40;;;;;;;9.83;73.79;97942.81;108635;1252;107676;-78
2023/11/15 12:04:16;;;;;;;16.40;6.40;;;;;;;9.75;73.76;97947.02;108616;1252;93027;-79
2023/11/15 12:06:45;;;;;;;13.00;5.30;;;;;;;9.72;73.90;97943.46;108757;1253;92930;-79
2023/11/15 12:09:32;;;;;;;19.20;7.30;;;;;;;9.73;73.89;97949.18;108562;1251;107624;-81
2023/11/15 12:12:17;;;;;;;13.60;5.90;;;;;;;9.80;73.89;97955.80;108647;1253;95264;-79
2023/11/15 12:14:49;;;;;;;16.20;7.10;;;;;;;9.85;73.92;97956.31;108658;1253;109298;-80
2023/11/15 12:17:18;;;;;;;;;;;;;;;9.90;74.00;97965.25;108630;1253;93396;-82
2023/11/15 12:19:46;;;;;;;11.80;5.70;;;;;;;9.92;74.20;97971.96;108651;1253;92907;-83
2023/11/15 12:22:22;;;;;;;12.20;5.30;;;;;;;9.92;73.96;97973.33;108539;1252;107987;-79
2023/11/15 12:24:51;;;;;;;9.40;4.50;;;;;;;9.93;73.93;97976.08;108695;1251;95449;-80
2023/11/15 12:27:39;;;;;;;9.20;3.90;;;;;;;9.94;74.05;97977.79;108631;1252;108300;-79
2023/11/15 12:30:08;;;;;;;5.50;2.70;;;;;;;9.92;73.98;97981.36;108723;1252;93236;-80
2023/11/15 12:32:44;;;;;;;10.80;4.00;;;;;;;9.89;74.06;97976.06;108669;1252;92890;-81
2023/11/15 12:35:13;;;;;;;6.60;3.60;;;;;;;9.88;74.32;97982.02;108507;1252;108626;-80
2023/11/15 12:37:48;;;;;;;10.10;4.20;;;;;;;9.82;74.27;97979.36;108630;1253;95427;-80
2023/11/15 12:40:37;;;;;;;11.30;4.20;;;;;;;9.76;74.18;97984.69;108490;1252;107204;-78
2023/11/15 12:43:18;;;;;;;23.50;6.60;;;;;;;9.72;74.32;97983.40;108364;1253;93268;-79
2023/11/15 12:46:21;;;;;;;16.90;6.00;;;;;;;9.68;74.48;97978.30;108717;1252;93354;-79
2023/11/15 12:49:14;;;;;;;19.70;6.20;;;;;;;9.63;74.43;97982.92;108606;1253;108664;-78
2023/11/15 12:52:21;;;;;;;;;;;;;;;;;;;;;
2023/11/15 12:56:19;;;;;;;8.70;3.70;;;;;;;9.69;74.42;97996.75;108305;1256;107859;-78
2023/11/15 12:59:51;;;;;;;;;;;;;;;;;;;;;
2023/11/15 13:02:27;;;;;;;10.60;4.40;;;;;;;9.74;74.64;97999.77;107694;1264;93032;-79
2023/11/15 13:05:35;;;;;;;;;;;;;;;;;;;;;
2023/11/15 13:08:11;;;;;;;10.70;4.20;;;;;;;9.78;74.52;98003.09;107756;1264;95486;-79
2023/11/15 13:11:31;;;;;;;9.20;4.10;;;;;;;9.78;74.57;98001.99;107047;1272;108083;-79
2023/11/15 13:14:16;;;;;;;10.00;4.00;;;;;;;9.79;74.55;97999.81;107406;1269;93031;-80
2023/11/15 13:17:15;;;;;;;12.40;4.80;;;;;;;9.82;74.54;98003.56;107280;1267;93305;-82
2023/11/15 13:19:49;;;;;;;9.30;4.30;;;;;;;9.86;74.49;98005.04;107947;1257;108502;-84
2023/11/15 13:22:34;;;;;;;;;;;;;;;;;;;;;
2023/11/15 13:25:36;;;;;;;11.30;5.10;;;;;;;9.86;74.60;98006.11;108126;1257;107442;-80
2023/11/15 13:28:24;;;;;;;15.00;5.80;;;;;;;9.84;74.59;98007.02;108151;1257;93343;-79
2023/11/15 13:31:41;;;;;;;11.80;4.90;;;;;;;9.81;74.74;98013.40;108069;1257;93398;-80
2023/11/15 13:34:24;;;;;;;22.60;9.50;;;;;;;9.76;74.70;98018.64;108360;1253;108729;-78
2023/11/15 13:37:08;;;;;;;16.60;6.10;;;;;;;9.73;74.58;98014.52;108584;1253;96016;-77
2023/11/15 13:39:37;;;;;;;15.70;6.20;;;;;;;9.72;74.71;98015.66;108558;1253;107802;-78
2023/11/15 13:42:08;;;;;;;17.70;8.10;;;;;;;9.71;74.70;98018.42;108797;1252;93148;-79
2023/11/15 13:44:39;;;;;;;22.60;10.90;;;;;;;9.72;74.62;98020.97;108460;1251;92983;-79
2023/11/15 13:47:08;;;;;;;19.00;8.30;;;;;;;9.72;74.70;98023.44;108540;1256;108121;-78
2023/11/15 13:49:38;;;;;;;21.60;9.10;;;;;;;9.72;74.74;98026.27;108525;1252;93922;-82
2023/11/15 13:52:07;;;;;;;28.50;15.00;;;;;;;9.72;74.73;98028.38;108519;1253;107692;-78
2023/11/15 13:54:35;;;;;;;29.20;15.70;;;;;;;9.71;74.86;98029.00;108581;1252;93039;-80
2023/11/15 13:57:04;;;;;;;25.60;13.60;;;;;;;9.66;74.83;98033.66;108693;1253;92961;-83
2023/11/15 13:59:36;;;;;;;16.90;6.60;;;;;;;9.63;74.98;98037.80;108729;1253;108694;-80
2023/11/15 14:02:05;;;;;;;16.70;6.90;;;;;;;9.58;74.81;98044.27;108540;1253;96928;-81
2023/11/15 14:04:35;;;;;;;17.80;7.70;;;;;;;9.53;74.90;98045.89;108549;1253;107466;-84
2023/11/15 14:07:10;;;;;;;19.20;8.10;;;;;;;9.49;74.92;98048.40;108634;1253;93212;-79
2023/11/15 14:09:40;;;;;;;13.80;5.60;;;;;;;9.46;74.89;98051.30;108613;1252;92915;-83
2023/11/15 14:12:12;;;;;;;15.90;6.90;;;;;;;9.44;74.94;98055.17;108572;1253;108596;-80
2023/11/15 14:14:42;;;;;;;17.40;6.60;;;;;;;9.42;75.01;98058.87;108645;1253;95394;-85
2023/11/15 14:17:14;;;;;;;16.40;6.00;;;;;;;9.40;75.07;98064.84;108636;1252;107698;-79
2023/11/15 14:19:51;;;;;;;17.20;7.60;;;;;;;9.37;75.20;98072.15;108490;1253;93306;-79
2023/11/15 14:22:34;;;;;;;13.70;6.40;;;;;;;9.34;75.32;98074.39;108588;1252;93117;-82
2023/11/15 14:25:08;;;;;;;12.30;5.20;;;;;;;9.31;75.12;98080.85;108542;1252;108198;-86
2023/11/15 14:27:38;;;;;;;18.20;5.60;;;;;;;9.28;75.63;98092.92;108543;1253;97140;-80
2023/11/15 14:30:12;;;;;;;13.10;5.10;;;;;;;9.24;75.40;98094.65;108457;1253;107433;-77
2023/11/15 14:32:40;;;;;;;17.30;6.40;;;;;;;9.21;75.61;98100.90;108786;1252;93307;-82
2023/11/15 14:35:09;;;;;;;17.50;6.90;;;;;;;9.18;75.27;98097.11;108514;1253;93172;-85
2023/11/15 14:37:38;;;;;;;13.30;5.80;;;;;;;9.17;75.23;98101.10;108557;1253;108514;-85
2023/11/15 14:40:08;;;;;;;14.00;5.80;;;;;;;9.16;75.21;98097.30;108607;1252;96198;-80
2023/11/15 14:42:36;;;;;;;14.60;6.10;;;;;;;9.15;75.18;98100.22;108554;1255;107683;-80
2023/11/15 14:45:08;;;;;;;19.90;8.10;;;;;;;9.11;75.23;98100.02;108483;1252;93285;-79
2023/11/15 14:47:37;;;;;;;17.60;8.40;;;;;;;9.07;75.18;98103.11;108603;1252;92944;-79
2023/11/15 14:50:14;;;;;;;14.90;7.20;;;;;;;9.05;75.22;98106.64;108585;1252;108052;-79
2023/11/15 14:55:39;;;;;;;19.90;8.40;;;;;;;9.04;75.27;98116.60;108397;1252;108235;-79
2023/11/15 14:58:11;;;;;;;15.50;6.40;;;;;;;9.04;75.21;98122.43;108587;1252;93131;-79
2023/11/15 15:00:41;;;;;;;13.70;5.50;;;;;;;9.05;75.15;98124.89;108610;1252;93179;-85
